Time;durP1;ratioP1;P1;durP2;ratioP2;P2;SDS_P1;SDS_P2;PMS_P1;PMS_P2;Temp;Humidity;BMP_temperature;BMP_pressure;BME280_temperature;BME280_humidity;BME280_pressure;Samples;Min_cycle;Max_cycle;Signal;HPM_P1;HPM_P2
2023/03/18 00:01:22;;;;;;;7.20;6.50;;;11.50;99.90;;;;;;5000897;28;20487;-66
2023/03/18 00:03:50;;;;;;;7.10;6.50;;;11.40;99.90;;;;;;4999763;28;20505;-66
2023/03/18 00:06:20;;;;;;;6.83;6.13;;;11.40;99.90;;;;;;4999572;28;20500;-66
2023/03/18 00:08:49;;;;;;;7.40;6.80;;;11.40;99.90;;;;;;5000052;28;20464;-67
2023/03/18 00:11:21;;;;;;;7.20;6.57;;;11.40;99.90;;;;;;5001353;28;20871;-67
2023/03/18 00:13:50;;;;;;;7.23;6.50;;;11.40;99.90;;;;;;4999632;28;20479;-66
2023/03/18 00:16:20;;;;;;;7.03;6.30;;;11.40;99.90;;;;;;4998604;28;20479;-66
2023/03/18 00:18:48;;;;;;;7.07;6.47;;;11.30;99.90;;;;;;5001715;28;20966;-66
2023/03/18 00:21:17;;;;;;;6.20;5.70;;;11.30;99.90;;;;;;4999659;28;20879;-66
2023/03/18 00:23:47;;;;;;;6.33;5.80;;;11.30;99.90;;;;;;4999661;28;20869;-66
2023/03/18 00:26:15;;;;;;;6.60;6.00;;;11.30;99.90;;;;;;5000419;28;20477;-65
2023/03/18 00:28:45;;;;;;;6.33;5.83;;;11.30;99.90;;;;;;4998352;28;20464;-66
2023/03/18 00:31:14;;;;;;;6.67;6.07;;;11.30;99.90;;;;;;4960335;28;1076229;-66
2023/03/18 00:33:44;;;;;;;6.93;6.23;;;11.30;99.90;;;;;;4996489;28;20214;-66
2023/03/18 00:36:13;;;;;;;8.03;7.10;;;11.30;99.90;;;;;;5000152;28;20503;-66
2023/03/18 00:38:41;;;;;;;7.70;6.90;;;11.30;99.90;;;;;;4999754;28;20489;-66
2023/03/18 00:41:14;;;;;;;7.60;6.70;;;11.30;99.90;;;;;;5001052;28;21016;-66
2023/03/18 00:43:51;;;;;;;7.00;6.30;;;11.30;99.90;;;;;;4999297;28;21010;-66
2023/03/18 00:46:21;;;;;;;6.30;5.70;;;11.30;99.90;;;;;;4999802;28;20472;-65
2023/03/18 00:48:49;;;;;;;7.00;6.40;;;11.30;99.90;;;;;;5000212;28;20509;-66
2023/03/18 00:51:17;;;;;;;5.60;5.13;;;11.30;99.90;;;;;;4997530;28;20496;-66
2023/03/18 00:53:47;;;;;;;5.33;4.93;;;11.30;99.90;;;;;;5001529;28;20472;-66
2023/03/18 00:56:17;;;;;;;7.00;5.77;;;11.30;99.90;;;;;;5001119;28;20580;-66
2023/03/18 00:58:46;;;;;;;6.13;5.63;;;11.30;99.90;;;;;;4994306;28;20575;-65
2023/03/18 01:01:16;;;;;;;6.33;5.33;;;11.30;99.90;;;;;;4996600;28;20485;-65
2023/03/18 01:03:45;;;;;;;6.53;5.93;;;11.30;99.90;;;;;;4999457;28;20472;-65
2023/03/18 01:06:16;;;;;;;6.47;5.87;;;11.30;99.90;;;;;;4999807;28;20468;-66
2023/03/18 01:08:44;;;;;;;5.77;5.30;;;11.30;99.90;;;;;;5000041;28;20464;-66
2023/03/18 01:11:12;;;;;;;5.70;5.20;;;11.30;99.90;;;;;;4999618;28;20492;-66
2023/03/18 01:13:41;;;;;;;5.10;4.60;;;11.20;99.90;;;;;;4997697;28;20479;-66
2023/03/18 01:16:10;;;;;;;5.83;5.33;;;11.20;99.90;;;;;;5002254;28;20476;-66
2023/03/18 01:18:39;;;;;;;5.87;5.37;;;11.20;99.90;;;;;;4998712;28;20543;-66
2023/03/18 01:21:08;;;;;;;5.20;4.70;;;11.20;99.90;;;;;;5001185;28;20938;-66
2023/03/18 01:23:36;;;;;;;5.23;4.83;;;11.20;99.90;;;;;;4998362;28;20477;-66
2023/03/18 01:26:05;;;;;;;5.60;5.10;;;11.20;99.90;;;;;;5001943;28;20607;-66
2023/03/18 01:28:34;;;;;;;6.50;4.83;;;11.20;99.90;;;;;;4994956;28;20469;-66
2023/03/18 01:31:02;;;;;;;6.37;4.80;;;11.20;99.90;;;;;;4996384;28;20503;-65
2023/03/18 01:33:32;;;;;;;6.57;4.80;;;11.30;99.90;;;;;;4998601;28;20834;-65
2023/03/18 01:36:02;;;;;;;5.00;4.50;;;11.30;99.90;;;;;;5001248;28;20995;-65
2023/03/18 01:38:31;;;;;;;5.37;4.87;;;11.30;99.90;;;;;;4999182;28;20496;-66
2023/03/18 01:41:00;;;;;;;5.70;5.20;;;11.30;99.90;;;;;;4999355;28;20477;-65
2023/03/18 01:43:30;;;;;;;4.63;4.23;;;11.20;99.90;;;;;;4998359;28;20965;-66
2023/03/18 01:46:00;;;;;;;3.87;3.57;;;11.20;99.90;;;;;;4998454;28;20503;-66
2023/03/18 01:48:36;;;;;;;4.77;4.17;;;11.20;99.90;;;;;;5000029;28;20481;-66
2023/03/18 01:51:08;;;;;;;4.90;4.50;;;11.20;99.90;;;;;;4998691;28;20506;-66
2023/03/18 01:53:42;;;;;;;4.90;4.50;;;11.20;99.90;;;;;;4996331;28;20484;-66
2023/03/18 01:56:11;;;;;;;4.80;4.40;;;11.20;99.90;;;;;;4999370;28;20873;-66
2023/03/18 01:58:41;;;;;;;4.97;4.57;;;11.20;99.90;;;;;;4998081;28;20487;-66
2023/03/18 02:01:14;;;;;;;4.77;4.37;;;11.20;99.90;;;;;;4998080;28;20485;-66
2023/03/18 02:03:43;;;;;;;5.40;4.90;;;11.20;99.90;;;;;;4998490;28;20473;-65
2023/03/18 02:06:12;;;;;;;5.20;4.70;;;11.20;99.90;;;;;;4996391;28;20472;-65
2023/03/18 02:08:40;;;;;;;5.30;4.90;;;11.20;99.90;;;;;;4999389;28;20525;-65
2023/03/18 02:11:10;;;;;;;5.00;4.50;;;11.20;99.90;;;;;;4998160;28;20531;-67
2023/03/18 02:13:41;;;;;;;5.03;4.63;;;11.20;99.90;;;;;;4995559;28;20464;-66
2023/03/18 02:16:14;;;;;;;5.47;4.97;;;11.20;99.90;;;;;;4997826;28;20468;-65
2023/03/18 02:18:48;;;;;;;5.30;4.80;;;11.20;99.90;;;;;;4999161;28;20480;-65
2023/03/18 02:21:26;;;;;;;5.30;4.80;;;11.20;99.90;;;;;;4994764;28;20907;-66
2023/03/18 02:24:04;;;;;;;5.10;4.63;;;11.20;99.90;;;;;;4999678;28;20854;-66
2023/03/18 02:26:39;;;;;;;5.43;4.67;;;11.20;99.90;;;;;;4992012;28;20913;-66
2023/03/18 02:29:13;;;;;;;5.33;4.80;;;11.20;99.90;;;;;;4985694;28;20475;-66
2023/03/18 02:31:42;;;;;;;5.40;4.90;;;11.10;99.90;;;;;;4992812;28;20494;-66
2023/03/18 02:34:12;;;;;;;5.50;5.00;;;11.20;99.90;;;;;;4993131;28;20469;-66
2023/03/18 02:36:40;;;;;;;5.80;5.20;;;11.10;99.90;;;;;;4997192;28;20495;-66
2023/03/18 02:39:13;;;;;;;5.70;5.10;;;11.10;99.90;;;;;;4994564;28;20528;-66
2023/03/18 02:41:41;;;;;;;5.40;4.90;;;11.20;99.90;;;;;;4993072;28;20481;-66
2023/03/18 02:44:11;;;;;;;5.10;4.70;;;11.10;99.90;;;;;;4995400;28;20480;-66
2023/03/18 02:46:52;;;;;;;5.57;5.13;;;11.10;99.90;;;;;;4996772;28;20472;-66
2023/03/18 02:49:22;;;;;;;5.20;4.70;;;11.10;99.90;;;;;;4998817;28;20564;-66
2023/03/18 02:51:51;;;;;;;5.37;4.90;;;11.10;99.90;;;;;;4997817;28;20992;-66
2023/03/18 02:54:22;;;;;;;5.93;5.43;;;11.10;99.90;;;;;;4989691;28;20475;-66
2023/03/18 02:56:50;;;;;;;9.70;5.10;;;11.10;99.90;;;;;;4998483;28;20476;-66
2023/03/18 02:59:21;;;;;;;6.43;5.80;;;11.10;99.90;;;;;;4995584;28;20602;-66
2023/03/18 03:01:51;;;;;;;5.57;5.07;;;11.20;99.90;;;;;;4995670;28;20483;-66
2023/03/18 03:04:22;;;;;;;6.50;5.67;;;11.10;99.90;;;;;;4992423;28;20468;-65
2023/03/18 03:06:51;;;;;;;6.53;5.00;;;11.10;99.90;;;;;;4997746;28;21016;-65
2023/03/18 03:09:20;;;;;;;7.23;5.17;;;11.10;99.90;;;;;;4998396;28;21039;-65
2023/03/18 03:11:50;;;;;;;6.70;5.37;;;11.10;99.90;;;;;;4994289;28;20497;-66
2023/03/18 03:14:18;;;;;;;8.53;5.53;;;11.10;99.90;;;;;;4989731;28;20522;-66
2023/03/18 03:16:47;;;;;;;8.13;5.17;;;11.20;99.90;;;;;;4994617;28;20471;-66
2023/03/18 03:19:15;;;;;;;6.60;5.50;;;11.20;99.90;;;;;;4997213;28;20473;-66
2023/03/18 03:21:45;;;;;;;7.80;5.20;;;11.20;99.90;;;;;;4993908;28;20488;-65
2023/03/18 03:24:13;;;;;;;7.10;6.00;;;11.20;99.90;;;;;;4994744;28;20485;-65
2023/03/18 03:26:41;;;;;;;5.33;4.83;;;11.20;99.90;;;;;;4993878;28;20490;-65
2023/03/18 03:29:11;;;;;;;5.20;4.70;;;11.20;99.90;;;;;;4993454;28;20484;-66
2023/03/18 03:31:39;;;;;;;5.50;5.00;;;11.10;99.90;;;;;;4992559;28;20580;-66
2023/03/18 03:34:09;;;;;;;5.97;5.07;;;11.10;99.90;;;;;;4997428;28;20511;-66
2023/03/18 03:36:37;;;;;;;8.17;5.47;;;11.10;99.90;;;;;;4998549;28;20528;-66
2023/03/18 03:39:05;;;;;;;5.67;5.17;;;11.10;99.90;;;;;;4998084;28;20981;-66
2023/03/18 03:41:33;;;;;;;5.53;5.03;;;11.10;99.90;;;;;;4997313;28;20492;-65
2023/03/18 03:44:01;;;;;;;6.37;5.77;;;11.00;99.90;;;;;;4995208;28;20476;-65
2023/03/18 03:46:30;;;;;;;5.77;5.30;;;11.00;99.90;;;;;;4996808;28;20479;-66
2023/03/18 03:48:58;;;;;;;6.70;6.00;;;11.00;99.90;;;;;;4997843;28;20472;-66
2023/03/18 03:51:28;;;;;;;6.57;5.20;;;11.00;99.90;;;;;;4995372;28;20485;-65
2023/03/18 03:53:56;;;;;;;6.20;5.60;;;11.00;99.90;;;;;;4997725;28;20481;-66
2023/03/18 03:56:24;;;;;;;5.83;5.33;;;11.00;99.90;;;;;;4995110;28;21603;-66
2023/03/18 03:58:52;;;;;;;6.97;6.27;;;11.00;99.90;;;;;;4993978;28;20476;-64
2023/03/18 04:01:20;;;;;;;7.33;6.10;;;11.00;99.90;;;;;;4990576;28;20696;-65
2023/03/18 04:03:48;;;;;;;7.13;6.43;;;11.00;99.90;;;;;;4995281;28;21093;-65
2023/03/18 04:06:16;;;;;;;6.70;6.00;;;11.00;99.90;;;;;;4994651;28;20477;-65
2023/03/18 04:08:45;;;;;;;6.60;6.00;;;11.00;99.90;;;;;;4995929;28;20819;-65
2023/03/18 04:11:14;;;;;;;6.93;6.23;;;11.00;99.90;;;;;;4999885;28;20487;-66
2023/03/18 04:13:42;;;;;;;6.50;5.90;;;11.00;99.90;;;;;;4997414;28;20916;-66
2023/03/18 04:16:10;;;;;;;6.53;5.90;;;10.90;99.90;;;;;;5001655;28;20474;-66
2023/03/18 04:18:39;;;;;;;7.93;6.10;;;10.90;99.90;;;;;;4991063;28;20588;-66
2023/03/18 04:21:07;;;;;;;6.53;5.67;;;10.90;99.90;;;;;;4999004;28;20503;-66
2023/03/18 04:23:35;;;;;;;5.93;5.30;;;10.90;99.90;;;;;;4999972;28;20460;-66
2023/03/18 04:26:05;;;;;;;7.00;6.20;;;10.90;99.90;;;;;;5001111;28;20475;-66
2023/03/18 04:28:33;;;;;;;6.70;6.10;;;10.90;99.90;;;;;;4995529;28;20471;-66
2023/03/18 04:31:01;;;;;;;7.37;5.70;;;10.90;99.90;;;;;;4998981;28;20534;-66
2023/03/18 04:33:29;;;;;;;7.63;6.53;;;10.90;99.90;;;;;;4999969;28;20473;-66
2023/03/18 04:35:57;;;;;;;6.73;6.10;;;10.90;99.90;;;;;;5000135;28;20477;-66
2023/03/18 04:38:27;;;;;;;6.33;5.73;;;10.80;99.90;;;;;;4995858;28;20604;-66
2023/03/18 04:40:55;;;;;;;7.37;6.67;;;10.80;99.90;;;;;;5000025;28;20871;-66
2023/03/18 04:43:24;;;;;;;6.10;5.60;;;10.80;99.90;;;;;;5000055;28;20468;-66
2023/03/18 04:45:52;;;;;;;11.07;6.40;;;10.80;99.90;;;;;;4999481;28;20472;-66
2023/03/18 04:48:20;;;;;;;6.70;5.60;;;10.80;99.90;;;;;;4997993;28;21058;-66
2023/03/18 04:50:48;;;;;;;6.50;5.90;;;10.80;99.90;;;;;;5000363;28;20488;-66
2023/03/18 04:53:16;;;;;;;6.90;6.30;;;10.70;99.90;;;;;;5000059;28;20652;-66
2023/03/18 04:55:44;;;;;;;6.73;6.03;;;10.70;99.90;;;;;;4998514;28;20475;-66
2023/03/18 04:58:12;;;;;;;7.37;5.93;;;10.70;99.90;;;;;;4997145;28;20472;-66
2023/03/18 05:00:42;;;;;;;9.77;5.83;;;10.70;99.90;;;;;;4998386;28;20500;-66
2023/03/18 05:03:11;;;;;;;7.13;6.53;;;10.60;99.90;;;;;;4998788;28;20476;-66
2023/03/18 05:05:39;;;;;;;6.70;6.10;;;10.70;99.90;;;;;;5001159;28;20468;-66
2023/03/18 05:08:07;;;;;;;6.63;5.97;;;10.60;99.90;;;;;;4995537;28;20863;-65
2023/03/18 05:10:35;;;;;;;7.87;5.73;;;10.60;99.90;;;;;;4998313;28;20481;-66
2023/03/18 05:13:03;;;;;;;7.23;6.53;;;10.60;99.90;;;;;;4995775;28;20480;-66
2023/03/18 05:15:31;;;;;;;5.97;5.43;;;10.60;99.90;;;;;;4998341;28;20867;-66
2023/03/18 05:18:01;;;;;;;6.87;6.17;;;10.60;99.90;;;;;;5001081;28;20477;-66
2023/03/18 05:20:29;;;;;;;7.00;6.13;;;10.60;99.90;;;;;;4998046;28;20493;-66
2023/03/18 05:22:57;;;;;;;7.90;7.10;;;10.60;99.90;;;;;;4993758;28;20480;-66
2023/03/18 05:25:25;;;;;;;6.77;6.10;;;10.60;99.90;;;;;;4993880;28;20481;-66
2023/03/18 05:27:54;;;;;;;8.33;7.53;;;10.60;99.90;;;;;;4995153;28;20468;-66
2023/03/18 05:30:22;;;;;;;9.90;8.90;;;10.60;99.90;;;;;;4999130;28;20879;-66
2023/03/18 05:32:50;;;;;;;11.43;9.37;;;10.60;99.90;;;;;;4996601;28;20995;-66
2023/03/18 05:35:20;;;;;;;12.00;10.90;;;10.60;99.90;;;;;;4996709;28;20560;-66
2023/03/18 05:37:48;;;;;;;12.30;11.00;;;10.70;99.90;;;;;;4990673;28;20480;-66
2023/03/18 05:40:17;;;;;;;11.37;10.27;;;10.70;99.90;;;;;;4994188;28;20502;-66
2023/03/18 05:42:45;;;;;;;12.73;10.20;;;10.80;99.90;;;;;;4996067;28;21268;-65
2023/03/18 05:45:23;;;;;;;12.30;10.50;;;10.80;99.90;;;;;;4996692;28;20464;-65
2023/03/18 05:47:51;;;;;;;13.03;10.70;;;10.90;99.90;;;;;;4996200;28;20480;-65
2023/03/18 05:50:29;;;;;;;11.30;10.30;;;10.90;99.90;;;;;;4993187;28;20552;-65
2023/03/18 05:52:58;;;;;;;11.40;10.20;;;10.90;99.90;;;;;;4995052;28;20491;-65
2023/03/18 05:55:27;;;;;;;11.93;10.30;;;10.90;99.90;;;;;;4997208;28;20472;-66
2023/03/18 05:57:55;;;;;;;12.90;10.33;;;10.90;99.90;;;;;;4995355;28;20915;-66
2023/03/18 06:00:24;;;;;;;11.37;10.10;;;10.90;99.90;;;;;;4993301;28;20500;-66
2023/03/18 06:02:52;;;;;;;13.10;11.90;;;10.90;99.90;;;;;;4993974;28;20492;-67
2023/03/18 06:05:21;;;;;;;12.13;10.73;;;10.90;99.90;;;;;;4994288;28;20548;-66
2023/03/18 06:07:52;;;;;;;11.10;9.90;;;10.90;99.90;;;;;;4992499;28;20555;-66
2023/03/18 06:10:21;;;;;;;11.83;10.53;;;10.90;99.90;;;;;;4995102;28;20502;-64
2023/03/18 06:12:51;;;;;;;12.13;11.03;;;10.90;99.90;;;;;;4994339;28;20500;-66
2023/03/18 06:15:20;;;;;;;12.00;10.90;;;10.90;99.90;;;;;;4990503;28;20492;-66
2023/03/18 06:17:48;;;;;;;12.20;10.97;;;10.90;99.90;;;;;;4995319;28;20503;-65
2023/03/18 06:20:18;;;;;;;11.33;10.33;;;10.90;99.90;;;;;;4989876;28;20499;-65
2023/03/18 06:22:48;;;;;;;13.37;11.17;;;10.90;99.90;;;;;;4987026;28;20576;-65
2023/03/18 06:25:20;;;;;;;12.07;10.90;;;10.90;99.90;;;;;;4993074;28;20496;-65
2023/03/18 06:27:48;;;;;;;12.70;10.77;;;10.90;99.90;;;;;;4991579;28;21042;-65
2023/03/18 06:30:17;;;;;;;12.07;10.87;;;10.90;99.90;;;;;;4994490;28;20500;-65
2023/03/18 06:32:45;;;;;;;11.70;10.50;;;11.00;99.90;;;;;;4994942;28;21001;-65
2023/03/18 06:35:14;;;;;;;12.50;11.30;;;11.00;99.90;;;;;;4994304;28;21004;-65
2023/03/18 06:37:42;;;;;;;11.93;10.73;;;11.00;99.90;;;;;;4991809;28;20472;-64
2023/03/18 06:40:12;;;;;;;11.53;10.23;;;11.00;99.90;;;;;;4997077;28;20497;-65
2023/03/18 06:42:41;;;;;;;12.47;11.17;;;11.00;99.90;;;;;;4984990;28;20495;-65
2023/03/18 06:45:10;;;;;;;12.87;10.57;;;11.00;99.90;;;;;;4995864;28;20477;-65
2023/03/18 06:47:39;;;;;;;13.00;11.70;;;11.00;99.90;;;;;;4991602;28;20481;-65
2023/03/18 06:50:08;;;;;;;11.50;10.40;;;11.00;99.90;;;;;;4990934;28;20508;-65
2023/03/18 06:52:37;;;;;;;13.37;12.00;;;11.00;99.90;;;;;;4997992;28;20492;-65
2023/03/18 06:55:06;;;;;;;12.80;11.60;;;11.00;99.90;;;;;;4998182;28;20843;-64
2023/03/18 06:57:34;;;;;;;13.00;11.63;;;11.10;99.90;;;;;;4985704;28;20571;-65
2023/03/18 07:00:04;;;;;;;12.43;11.23;;;11.10;99.90;;;;;;4987627;28;23423;-65
2023/03/18 07:02:32;;;;;;;12.10;10.77;;;11.10;99.90;;;;;;4989930;28;21001;-65
2023/03/18 07:05:00;;;;;;;12.80;10.33;;;11.10;99.90;;;;;;4996377;28;20530;-65
2023/03/18 07:07:28;;;;;;;12.33;11.03;;;11.20;99.90;;;;;;4989338;28;20482;-64
2023/03/18 07:09:56;;;;;;;12.73;11.37;;;11.20;99.90;;;;;;4983454;28;20488;-65
2023/03/18 07:12:25;;;;;;;13.43;11.20;;;11.20;99.90;;;;;;4990646;28;20508;-65
2023/03/18 07:14:53;;;;;;;12.80;11.57;;;11.20;99.90;;;;;;4983360;28;20480;-65
2023/03/18 07:17:23;;;;;;;14.10;12.60;;;11.30;99.90;;;;;;4993435;28;20591;-67
2023/03/18 07:19:51;;;;;;;11.97;10.77;;;11.30;99.90;;;;;;4995561;28;20970;-64
2023/03/18 07:22:20;;;;;;;13.27;12.00;;;11.30;99.90;;;;;;4991673;28;20497;-65
2023/03/18 07:24:48;;;;;;;12.40;11.20;;;11.40;99.90;;;;;;4996552;28;20520;-65
2023/03/18 07:27:16;;;;;;;13.27;11.87;;;11.40;99.90;;;;;;4991232;28;20464;-65
2023/03/18 07:29:44;;;;;;;12.70;11.50;;;11.40;99.90;;;;;;4996716;28;20489;-65
2023/03/18 07:32:12;;;;;;;13.10;11.90;;;11.50;99.90;;;;;;4992826;28;20541;-65
2023/03/18 07:34:42;;;;;;;13.87;11.47;;;11.50;99.90;;;;;;4996707;28;20472;-65
2023/03/18 07:37:10;;;;;;;12.43;11.13;;;11.60;99.90;;;;;;4995644;28;20469;-65
2023/03/18 07:39:38;;;;;;;12.53;11.27;;;11.60;99.90;;;;;;4998364;28;20496;-65
2023/03/18 07:42:08;;;;;;;12.47;11.17;;;11.60;99.90;;;;;;4996735;28;20497;-65
2023/03/18 07:44:36;;;;;;;14.03;12.53;;;11.60;99.90;;;;;;4999627;28;20483;-65
2023/03/18 07:47:04;;;;;;;12.53;11.33;;;11.60;99.90;;;;;;5001593;28;20857;-65
2023/03/18 07:49:32;;;;;;;11.47;10.33;;;11.60;99.90;;;;;;4999840;28;20515;-65
2023/03/18 07:52:02;;;;;;;12.80;11.13;;;11.60;99.90;;;;;;4999027;28;20482;-65
2023/03/18 07:54:30;;;;;;;14.07;12.67;;;11.60;99.90;;;;;;4993577;28;20472;-65
2023/03/18 07:56:58;;;;;;;13.70;11.70;;;11.60;99.90;;;;;;4993382;28;20997;-65
2023/03/18 07:59:26;;;;;;;12.77;11.50;;;11.60;99.90;;;;;;4993798;28;21088;-65
2023/03/18 08:01:54;;;;;;;12.53;11.23;;;11.60;99.90;;;;;;4991473;28;20493;-66
2023/03/18 08:04:22;;;;;;;11.60;10.40;;;11.60;99.90;;;;;;4981786;28;20483;-65
2023/03/18 08:06:50;;;;;;;12.10;10.90;;;11.60;99.90;;;;;;4986340;28;21433;-65
2023/03/18 08:09:20;;;;;;;13.93;12.47;;;11.60;99.90;;;;;;4982799;28;21057;-67
2023/03/18 08:11:47;;;;;;;13.03;11.57;;;11.60;99.90;;;;;;4988769;28;20495;-67
2023/03/18 08:14:16;;;;;;;13.33;11.27;;;11.60;99.90;;;;;;4988283;28;20476;-67
2023/03/18 08:16:44;;;;;;;14.90;12.10;;;11.70;99.90;;;;;;4991402;28;20480;-67
2023/03/18 08:19:12;;;;;;;13.50;10.33;;;11.70;99.90;;;;;;4989178;28;21073;-67
2023/03/18 08:21:40;;;;;;;14.07;11.13;;;11.70;99.90;;;;;;4990800;28;20487;-67
2023/03/18 08:24:08;;;;;;;11.77;10.50;;;11.70;99.90;;;;;;4987905;28;20495;-67
2023/03/18 08:26:37;;;;;;;12.50;11.33;;;11.70;99.90;;;;;;4977972;28;20479;-67
2023/03/18 08:29:06;;;;;;;12.10;10.90;;;11.70;99.90;;;;;;4986576;28;21001;-68
2023/03/18 08:31:34;;;;;;;12.87;11.47;;;11.70;99.90;;;;;;4991057;28;20487;-67
2023/03/18 08:34:02;;;;;;;12.53;11.10;;;11.80;99.90;;;;;;4994315;28;20508;-68
2023/03/18 08:36:31;;;;;;;14.73;11.77;;;11.80;99.90;;;;;;4996067;28;20526;-67
2023/03/18 08:38:58;;;;;;;13.13;11.80;;;11.70;99.90;;;;;;4991337;28;20475;-67
2023/03/18 08:41:27;;;;;;;12.90;11.60;;;11.80;99.90;;;;;;4998996;28;20535;-68
2023/03/18 08:43:57;;;;;;;12.37;10.87;;;11.80;99.90;;;;;;4988594;28;20500;-67
2023/03/18 08:46:25;;;;;;;14.43;11.47;;;11.80;99.90;;;;;;4989611;28;21137;-67
2023/03/18 08:48:54;;;;;;;12.60;11.40;;;11.80;99.90;;;;;;4998833;28;21025;-67
2023/03/18 08:51:22;;;;;;;12.73;11.50;;;11.80;99.90;;;;;;4996131;28;20496;-67
2023/03/18 08:53:51;;;;;;;12.63;11.37;;;11.80;99.90;;;;;;4998485;28;20464;-67
2023/03/18 08:56:19;;;;;;;15.50;11.20;;;11.80;99.90;;;;;;4993514;28;20473;-67
2023/03/18 08:58:47;;;;;;;13.00;11.17;;;11.80;99.90;;;;;;4997571;28;20971;-67
2023/03/18 09:01:18;;;;;;;12.77;11.47;;;11.80;99.90;;;;;;4986783;28;20495;-65
2023/03/18 09:03:46;;;;;;;12.83;11.57;;;11.80;99.90;;;;;;4992980;28;20525;-67
2023/03/18 09:06:15;;;;;;;13.27;11.97;;;11.80;99.90;;;;;;4990194;28;21036;-67
2023/03/18 09:08:43;;;;;;;13.17;11.90;;;11.90;99.90;;;;;;4988668;28;20480;-66
2023/03/18 09:11:12;;;;;;;12.90;11.53;;;11.80;99.90;;;;;;4994372;28;20491;-67
2023/03/18 09:13:40;;;;;;;12.90;11.80;;;11.90;99.90;;;;;;4993363;28;20473;-67
2023/03/18 09:16:09;;;;;;;12.20;11.10;;;11.80;99.90;;;;;;4998785;28;20496;-66
2023/03/18 09:18:39;;;;;;;14.00;12.60;;;11.80;99.90;;;;;;4994871;28;20468;-67
2023/03/18 09:21:11;;;;;;;13.47;12.07;;;11.80;99.90;;;;;;4993738;28;20488;-67
2023/03/18 09:23:39;;;;;;;13.93;12.20;;;11.80;99.90;;;;;;4987445;28;20504;-66
2023/03/18 09:26:07;;;;;;;13.27;11.97;;;11.80;99.90;;;;;;4996679;28;20484;-66
2023/03/18 09:28:35;;;;;;;13.47;12.07;;;11.80;99.90;;;;;;4988622;28;20479;-66
2023/03/18 09:31:04;;;;;;;13.93;11.93;;;11.80;99.90;;;;;;4978176;28;20509;-66
2023/03/18 09:33:32;;;;;;;13.77;12.20;;;11.80;99.90;;;;;;4977636;28;20563;-66
2023/03/18 09:36:03;;;;;;;13.20;11.70;;;11.80;99.90;;;;;;4982840;28;20472;-66
2023/03/18 09:38:31;;;;;;;12.83;11.50;;;11.70;99.90;;;;;;4987473;28;20468;-67
2023/03/18 09:41:07;;;;;;;13.27;12.00;;;11.80;99.90;;;;;;4997740;28;20500;-66
2023/03/18 09:43:53;;;;;;;14.43;13.17;;;11.80;99.90;;;;;;4996322;28;21005;-67
2023/03/18 09:46:28;;;;;;;14.40;12.90;;;11.80;99.90;;;;;;4996633;28;20477;-66
2023/03/18 09:49:23;;;;;;;13.57;12.40;;;11.80;99.90;;;;;;4996105;28;20475;-65
2023/03/18 09:52:05;;;;;;;13.63;12.10;;;11.80;99.90;;;;;;4995185;28;20515;-67
2023/03/18 09:54:38;;;;;;;14.83;13.03;;;11.90;99.90;;;;;;4993966;28;20842;-67
2023/03/18 09:57:11;;;;;;;15.10;12.60;;;11.90;99.90;;;;;;4996385;28;20522;-68
2023/03/18 09:59:43;;;;;;;14.77;12.63;;;11.90;99.90;;;;;;4989948;28;20547;-65
2023/03/18 10:02:21;;;;;;;14.57;12.40;;;11.90;99.90;;;;;;4982642;28;20502;-68
2023/03/18 10:04:55;;;;;;;12.97;11.70;;;11.90;99.90;;;;;;4981419;28;20499;-65
2023/03/18 10:07:31;;;;;;;14.93;13.33;;;12.00;99.90;;;;;;4978524;28;20472;-64
2023/03/18 10:10:04;;;;;;;15.43;13.13;;;12.00;99.90;;;;;;4986319;28;20521;-65
2023/03/18 10:12:35;;;;;;;14.80;13.23;;;12.00;99.90;;;;;;4985073;28;20487;-67
2023/03/18 10:15:13;;;;;;;16.10;14.57;;;12.10;99.90;;;;;;4985163;28;20868;-66
2023/03/18 10:17:45;;;;;;;14.63;12.87;;;12.20;99.90;;;;;;4985772;28;20476;-67
2023/03/18 10:20:18;;;;;;;13.50;12.20;;;12.40;99.90;;;;;;4985920;28;20500;-66
2023/03/18 10:22:58;;;;;;;14.47;13.00;;;12.50;99.90;;;;;;4991243;28;20912;-66
2023/03/18 10:25:32;;;;;;;13.97;12.67;;;12.60;99.90;;;;;;4990774;28;20502;-69
2023/03/18 10:28:35;;;;;;;13.33;11.97;;;12.70;99.90;;;;;;4985429;28;20479;-66
2023/03/18 10:31:14;;;;;;;13.00;11.70;;;12.70;99.90;;;;;;4904997;29;20510;-66
2023/03/18 10:33:47;;;;;;;14.43;13.07;;;12.70;99.90;;;;;;4976685;28;20461;-65
2023/03/18 10:36:19;;;;;;;12.80;11.57;;;12.70;99.90;;;;;;4989433;28;20464;-66
2023/03/18 10:38:50;;;;;;;14.07;12.77;;;12.70;99.90;;;;;;4987309;28;20480;-65
2023/03/18 10:41:22;;;;;;;13.90;12.50;;;12.90;99.90;;;;;;4989616;28;21098;-66
2023/03/18 10:43:55;;;;;;;13.97;12.80;;;12.90;99.90;;;;;;4993730;28;20676;-65
2023/03/18 10:46:25;;;;;;;12.50;11.40;;;13.00;99.90;;;;;;5007717;28;20835;-66
2023/03/18 10:48:58;;;;;;;11.97;10.67;;;13.20;99.90;;;;;;5010741;28;20500;-70
2023/03/18 10:51:33;;;;;;;13.07;11.50;;;13.40;99.90;;;;;;4999925;28;20968;-68
2023/03/18 10:54:09;;;;;;;11.23;10.23;;;13.40;99.90;;;;;;4996722;28;21174;-68
2023/03/18 10:56:37;;;;;;;11.53;10.50;;;13.50;99.90;;;;;;4989664;28;20604;-65
2023/03/18 10:59:12;;;;;;;12.50;11.20;;;13.70;99.90;;;;;;4988913;28;20507;-65
2023/03/18 11:01:41;;;;;;;12.83;10.80;;;13.70;99.90;;;;;;4988191;28;20526;-64
2023/03/18 11:04:14;;;;;;;10.87;9.87;;;13.80;99.90;;;;;;4983793;28;20550;-64
2023/03/18 11:06:46;;;;;;;10.97;9.93;;;13.90;99.90;;;;;;4983473;28;20477;-64
2023/03/18 11:09:17;;;;;;;11.93;10.73;;;14.10;99.90;;;;;;4981075;28;20821;-64
2023/03/18 11:11:47;;;;;;;11.33;10.43;;;14.20;99.90;;;;;;4985619;28;20492;-69
2023/03/18 11:14:19;;;;;;;11.20;10.20;;;14.40;99.90;;;;;;4990846;28;20835;-70
2023/03/18 11:16:49;;;;;;;11.87;10.50;;;14.50;99.90;;;;;;4979961;28;20484;-67
2023/03/18 11:19:30;;;;;;;11.73;10.70;;;14.60;99.90;;;;;;4992642;28;20478;-66
2023/03/18 11:22:16;;;;;;;11.77;10.30;;;14.80;99.90;;;;;;4994029;28;21057;-68
2023/03/18 11:24:47;;;;;;;10.73;9.83;;;14.90;99.90;;;;;;4992898;28;21162;-68
2023/03/18 11:27:33;;;;;;;10.70;9.60;;;15.00;99.90;;;;;;4991558;28;20551;-67
2023/03/18 11:30:12;;;;;;;11.33;10.33;;;15.10;99.90;;;;;;4986754;28;20496;-67
2023/03/18 11:32:58;;;;;;;12.37;11.13;;;15.10;99.90;;;;;;4969110;28;20927;-67
2023/03/18 11:35:37;;;;;;;11.93;10.73;;;15.20;99.90;;;;;;4969431;28;20580;-66
2023/03/18 11:38:06;;;;;;;11.83;10.63;;;15.10;99.90;;;;;;4974572;28;20900;-65
2023/03/18 11:40:39;;;;;;;11.43;10.30;;;15.20;99.90;;;;;;4972926;28;20580;-65
2023/03/18 11:43:17;;;;;;;11.17;10.13;;;15.40;99.90;;;;;;4972848;28;20485;-68
2023/03/18 11:45:52;;;;;;;11.70;10.63;;;15.60;99.90;;;;;;4967194;28;20492;-66
2023/03/18 11:48:30;;;;;;;12.63;11.37;;;15.80;99.90;;;;;;4966553;28;20473;-64
2023/03/18 11:51:13;;;;;;;10.70;9.80;;;15.90;99.90;;;;;;4962790;28;20589;-62
2023/03/18 11:53:51;;;;;;;11.77;10.53;;;16.00;99.90;;;;;;4964379;28;20484;-62
2023/03/18 11:56:28;;;;;;;12.17;11.13;;;16.10;99.90;;;;;;4964213;28;20484;-63
2023/03/18 11:59:19;;;;;;;11.47;10.57;;;16.30;99.90;;;;;;4967182;28;20481;-62
2023/03/18 12:01:56;;;;;;;24.23;22.03;;;16.40;99.90;;;;;;4960365;28;20715;-63
2023/03/18 12:04:41;;;;;;;39.90;35.40;;;16.70;99.90;;;;;;4969749;28;21025;-63
2023/03/18 12:07:31;;;;;;;27.80;25.40;;;17.10;99.90;;;;;;4961682;28;20516;-60
2023/03/18 12:10:09;;;;;;;57.80;53.80;;;17.40;99.90;;;;;;4955446;28;20500;-60
2023/03/18 12:12:52;;;;;;;97.37;90.03;;;17.80;99.90;;;;;;4967866;28;20488;-60
2023/03/18 12:15:27;;;;;;;23.47;20.97;;;18.10;99.90;;;;;;4974598;28;20477;-61
2023/03/18 12:18:07;;;;;;;12.37;11.07;;;18.40;99.90;;;;;;4974476;28;20957;-60
2023/03/18 12:20:48;;;;;;;11.97;10.77;;;18.60;99.90;;;;;;4963758;28;21113;-60
2023/03/18 12:23:49;;;;;;;10.37;9.47;;;18.80;99.90;;;;;;4974997;28;20484;-61
2023/03/18 12:26:24;;;;;;;67.90;60.90;;;19.10;99.90;;;;;;4933938;28;20507;-59
2023/03/18 12:29:25;;;;;;;11.63;10.63;;;19.50;99.90;;;;;;4973534;28;20480;-60
2023/03/18 12:32:04;;;;;;;10.33;9.23;;;19.80;99.90;;;;;;4974908;28;20488;-61
2023/03/18 12:34:49;;;;;;;9.07;8.17;;;20.20;99.90;;;;;;4979919;28;20462;-60
2023/03/18 12:37:30;;;;;;;9.47;8.50;;;20.20;99.90;;;;;;4977629;28;21080;-60
2023/03/18 12:40:21;;;;;;;7.73;7.03;;;20.10;99.90;;;;;;4968464;28;20490;-60
2023/03/18 12:42:58;;;;;;;7.70;7.00;;;19.80;99.90;;;;;;4971283;28;20900;-60
2023/03/18 12:45:34;;;;;;;8.60;7.90;;;19.70;99.90;;;;;;4969924;28;21823;-66
2023/03/18 12:48:08;;;;;;;8.30;7.60;;;19.80;99.90;;;;;;4973959;28;20476;-71
2023/03/18 12:50:39;;;;;;;7.67;7.00;;;20.00;99.90;;;;;;4970686;28;20505;-75
2023/03/18 12:53:15;;;;;;;7.93;7.30;;;19.80;99.90;;;;;;4976236;28;21000;-72
2023/03/18 12:55:48;;;;;;;7.67;7.07;;;19.90;99.90;;;;;;4971150;28;21094;-65